createdAt,value
2023-05-05T00:01:37.451Z,2.45
2023-05-05T00:04:07.409Z,2.15
2023-05-05T00:06:37.015Z,2.83
2023-05-05T00:09:06.664Z,2.15
2023-05-05T00:11:36.267Z,2.80
2023-05-05T00:14:05.848Z,2.60
2023-05-05T00:16:35.504Z,2.38
2023-05-05T00:19:05.339Z,2.70
2023-05-05T00:21:34.919Z,2.40
2023-05-05T00:24:04.539Z,2.40
2023-05-05T00:26:34.189Z,2.42
2023-05-05T00:29:03.728Z,2.47
2023-05-05T00:31:33.500Z,2.60
2023-05-05T00:34:03.258Z,2.47
2023-05-05T00:36:32.833Z,2.50
2023-05-05T00:39:02.745Z,2.65
2023-05-05T00:41:32.370Z,2.75
2023-05-05T00:44:02.088Z,2.60
2023-05-05T00:46:33.681Z,3.00
2023-05-05T00:49:03.503Z,2.42
2023-05-05T00:51:33.747Z,2.95
2023-05-05T00:54:03.688Z,2.72
2023-05-05T00:56:33.916Z,2.88
2023-05-05T00:59:05.908Z,2.33
2023-05-05T01:01:35.519Z,2.97
2023-05-05T01:04:05.236Z,2.75
2023-05-05T01:06:50.610Z,3.03
2023-05-05T01:09:32.682Z,2.38
2023-05-05T01:12:17.162Z,2.60
2023-05-05T01:15:00.770Z,3.05
2023-05-05T01:17:49.974Z,2.75
2023-05-05T01:20:47.066Z,2.40
2023-05-05T01:23:36.329Z,2.65
2023-05-05T01:26:24.379Z,2.45
2023-05-05T01:29:27.295Z,1.85
2023-05-05T01:32:10.074Z,2.30
2023-05-05T01:35:02.823Z,2.30
2023-05-05T01:37:44.857Z,2.20
2023-05-05T01:40:17.515Z,2.58
2023-05-05T01:42:47.894Z,2.17
2023-05-05T01:45:20.517Z,2.08
2023-05-05T01:47:50.918Z,2.50
2023-05-05T01:50:21.484Z,3.15
2023-05-05T01:52:54.114Z,2.60
2023-05-05T01:55:28.219Z,2.83
2023-05-05T01:58:00.936Z,2.25
2023-05-05T02:00:30.978Z,3.10
2023-05-05T02:03:01.921Z,2.78
2023-05-05T02:05:32.319Z,2.78
2023-05-05T02:08:04.557Z,3.00
2023-05-05T02:10:35.016Z,2.88
2023-05-05T02:13:06.452Z,3.38
2023-05-05T02:15:39.443Z,3.25
2023-05-05T02:18:09.654Z,3.70
2023-05-05T02:20:41.894Z,3.38
2023-05-05T02:23:11.865Z,3.30
2023-05-05T02:25:45.612Z,3.35
2023-05-05T02:28:22.599Z,3.25
2023-05-05T02:31:00.259Z,3.70
2023-05-05T02:33:34.952Z,3.28
2023-05-05T02:36:16.728Z,3.30
2023-05-05T02:38:48.917Z,3.70
2023-05-05T02:41:22.236Z,3.40
2023-05-05T02:43:53.172Z,3.80
2023-05-05T02:46:23.248Z,3.63
2023-05-05T02:48:52.882Z,3.28
2023-05-05T02:51:22.510Z,3.30
2023-05-05T02:53:53.828Z,3.33
2023-05-05T02:56:26.183Z,3.20
2023-05-05T02:59:07.988Z,3.00
2023-05-05T03:01:52.670Z,3.20
2023-05-05T03:04:39.404Z,3.30
2023-05-05T03:07:17.833Z,3.40
2023-05-05T03:09:58.789Z,3.00
2023-05-05T03:12:35.452Z,2.60
2023-05-05T03:15:06.338Z,3.13
2023-05-05T03:17:37.735Z,3.30
2023-05-05T03:20:11.835Z,2.95
2023-05-05T03:22:41.472Z,2.97
2023-05-05T03:25:11.414Z,3.05
2023-05-05T03:27:41.009Z,3.03
2023-05-05T03:30:11.643Z,3.00
2023-05-05T03:32:41.405Z,3.05
2023-05-05T03:35:11.345Z,3.40
2023-05-05T03:37:41.205Z,2.75
2023-05-05T03:40:11.306Z,3.38
2023-05-05T03:42:40.892Z,3.53
2023-05-05T03:45:10.878Z,3.17
2023-05-05T03:47:40.589Z,3.30
2023-05-05T03:50:10.675Z,3.42
2023-05-05T03:52:40.293Z,3.65
2023-05-05T03:55:10.237Z,3.28
2023-05-05T03:57:39.807Z,3.78
2023-05-05T04:00:13.281Z,3.55
2023-05-05T04:05:12.331Z,4.18
2023-05-05T04:07:42.094Z,4.20
2023-05-05T04:10:11.881Z,4.45
2023-05-05T04:12:41.535Z,3.78
2023-05-05T04:15:11.729Z,4.85
2023-05-05T04:17:41.369Z,4.75
2023-05-05T04:22:40.710Z,4.80
2023-05-05T04:25:10.851Z,3.67
2023-05-05T04:27:40.429Z,4.43
2023-05-05T04:30:10.910Z,4.35
2023-05-05T04:32:40.517Z,4.85
2023-05-05T04:35:10.746Z,5.03
2023-05-05T04:37:40.344Z,4.63
2023-05-05T04:40:10.728Z,5.25
2023-05-05T04:42:40.894Z,5.65
2023-05-05T04:45:12.191Z,5.35
2023-05-05T04:47:42.540Z,5.47
2023-05-05T04:50:13.046Z,5.95
2023-05-05T04:52:42.678Z,5.00
2023-05-05T04:55:13.106Z,4.80
2023-05-05T04:57:42.674Z,4.47
2023-05-05T05:00:12.755Z,5.38
2023-05-05T05:02:43.086Z,4.00
2023-05-05T05:05:12.890Z,4.60
2023-05-05T05:07:42.581Z,3.67
2023-05-05T05:10:12.544Z,5.53
2023-05-05T05:12:42.350Z,4.45
2023-05-05T05:15:12.635Z,5.55
2023-05-05T05:17:42.274Z,5.97
2023-05-05T05:20:12.130Z,6.40
2023-05-05T05:22:42.524Z,6.10
2023-05-05T05:25:12.464Z,6.30
2023-05-05T05:27:43.202Z,5.53
2023-05-05T05:30:13.170Z,5.38
2023-05-05T05:32:42.922Z,7.22
2023-05-05T05:35:12.570Z,6.40
2023-05-05T05:37:42.201Z,7.38
2023-05-05T05:40:12.058Z,7.50
2023-05-05T05:42:44.472Z,6.88
2023-05-05T05:45:14.057Z,6.15
2023-05-05T05:47:43.704Z,5.88
2023-05-05T05:50:13.617Z,5.63
2023-05-05T05:52:43.221Z,5.30
2023-05-05T05:55:12.889Z,5.97
2023-05-05T05:57:42.465Z,5.53
2023-05-05T06:00:12.809Z,5.60
2023-05-05T06:02:42.478Z,6.10
2023-05-05T06:05:12.391Z,5.50
2023-05-05T06:07:41.992Z,4.88
2023-05-05T06:10:26.508Z,5.28
2023-05-05T06:12:57.483Z,6.38
2023-05-05T06:15:27.484Z,5.47
2023-05-05T06:17:57.270Z,5.13
2023-05-05T06:20:26.972Z,4.90
2023-05-05T06:22:56.518Z,5.03
2023-05-05T06:25:26.195Z,5.05
2023-05-05T06:27:55.778Z,4.28
2023-05-05T06:30:27.597Z,4.20
2023-05-05T06:32:57.317Z,4.80
2023-05-05T06:35:26.997Z,3.90
2023-05-05T06:37:56.615Z,3.92
2023-05-05T06:40:26.294Z,4.28
2023-05-05T06:42:55.926Z,4.35
2023-05-05T06:45:25.552Z,3.60
2023-05-05T06:47:55.184Z,3.50
2023-05-05T06:50:24.780Z,3.97
2023-05-05T06:52:54.753Z,4.00
2023-05-05T06:55:25.100Z,4.13
2023-05-05T06:57:54.760Z,4.50
2023-05-05T07:00:24.638Z,4.57
2023-05-05T07:02:54.221Z,5.63
2023-05-05T07:05:23.932Z,5.20
2023-05-05T07:07:58.008Z,5.00
2023-05-05T07:10:28.495Z,4.28
2023-05-05T07:12:58.079Z,3.40
2023-05-05T07:15:29.659Z,3.30
2023-05-05T07:17:59.862Z,3.13
2023-05-05T07:20:29.716Z,2.70
2023-05-05T07:22:59.293Z,1.50
2023-05-05T07:25:29.264Z,1.45
2023-05-05T07:27:59.177Z,1.65
2023-05-05T07:30:28.794Z,1.10
2023-05-05T07:32:58.522Z,1.20
2023-05-05T07:35:29.207Z,1.30
2023-05-05T07:37:58.884Z,1.00
2023-05-05T07:40:28.465Z,0.90
2023-05-05T07:42:58.036Z,1.00
2023-05-05T07:45:27.685Z,1.00
2023-05-05T07:47:57.674Z,1.10
2023-05-05T07:50:28.577Z,1.42
2023-05-05T07:53:10.946Z,0.80
2023-05-05T07:55:44.510Z,0.82
2023-05-05T07:58:14.093Z,1.00
2023-05-05T08:00:45.347Z,1.40
2023-05-05T08:03:15.000Z,1.17
2023-05-05T08:05:44.843Z,1.50
2023-05-05T08:08:14.738Z,1.70
2023-05-05T08:10:44.326Z,1.60
2023-05-05T08:13:13.983Z,1.75
2023-05-05T08:15:43.842Z,1.67
2023-05-05T08:18:13.437Z,1.95
2023-05-05T08:20:42.981Z,1.77
2023-05-05T08:23:12.558Z,2.47
2023-05-05T08:25:42.359Z,2.35
2023-05-05T08:28:12.339Z,2.53
2023-05-05T08:30:42.261Z,2.03
2023-05-05T08:33:12.590Z,2.60
2023-05-05T08:35:42.338Z,2.30
2023-05-05T08:38:12.796Z,1.98
2023-05-05T08:40:42.922Z,2.20
2023-05-05T08:43:13.150Z,2.47
2023-05-05T08:45:43.782Z,2.10
2023-05-05T08:48:15.027Z,2.10
2023-05-05T08:50:50.313Z,1.92
2023-05-05T08:53:23.945Z,1.70
2023-05-05T08:55:57.041Z,1.67
2023-05-05T08:58:28.905Z,1.77
2023-05-05T09:00:59.623Z,1.98
2023-05-05T09:03:29.855Z,1.67
2023-05-05T09:06:00.043Z,2.33
2023-05-05T09:08:30.933Z,7.25
2023-05-05T09:11:00.578Z,3.13
2023-05-05T09:13:31.803Z,2.60
2023-05-05T09:16:01.582Z,2.65
2023-05-05T09:18:31.644Z,2.50
2023-05-05T09:21:01.523Z,2.60
2023-05-05T09:23:31.088Z,3.00
2023-05-05T09:26:11.400Z,2.67
2023-05-05T09:28:41.873Z,2.50
2023-05-05T09:31:17.555Z,2.90
2023-05-05T09:33:48.091Z,2.83
2023-05-05T09:36:17.650Z,3.10
2023-05-05T09:39:06.448Z,3.17
2023-05-05T09:41:45.033Z,3.25
2023-05-05T09:44:17.560Z,3.40
2023-05-05T09:46:56.695Z,3.25
2023-05-05T09:49:28.189Z,3.13
2023-05-05T09:51:58.218Z,3.30
2023-05-05T09:54:34.268Z,2.97
2023-05-05T09:57:03.938Z,2.90
2023-05-05T09:59:33.516Z,3.00
2023-05-05T10:02:14.641Z,3.15
2023-05-05T10:04:44.292Z,3.17
2023-05-05T10:07:28.389Z,3.25
2023-05-05T10:09:58.063Z,3.05
2023-05-05T10:12:28.805Z,3.10
2023-05-05T10:14:58.931Z,3.10
2023-05-05T10:17:33.018Z,3.35
2023-05-05T10:20:03.677Z,3.20
2023-05-05T10:22:37.844Z,2.97
2023-05-05T10:25:17.462Z,3.00
2023-05-05T10:27:49.845Z,3.08
2023-05-05T10:30:25.901Z,3.10
2023-05-05T10:35:59.141Z,4.40
2023-05-05T10:38:35.488Z,3.47
2023-05-05T10:41:06.017Z,3.28
2023-05-05T10:43:36.199Z,3.70
2023-05-05T10:46:06.361Z,3.75
2023-05-05T10:48:47.597Z,3.30
2023-05-05T10:51:39.565Z,3.05
2023-05-05T10:54:47.768Z,3.93
2023-05-05T10:57:20.761Z,3.10
2023-05-05T10:59:50.372Z,2.60
2023-05-05T11:02:32.957Z,3.53
2023-05-05T11:05:23.829Z,2.97
2023-05-05T11:07:54.526Z,2.95
2023-05-05T11:10:25.140Z,3.40
2023-05-05T11:12:54.745Z,3.10
2023-05-05T11:15:33.091Z,3.70
2023-05-05T11:18:07.954Z,3.72
2023-05-05T11:20:46.922Z,3.60
2023-05-05T11:23:22.661Z,3.78
2023-05-05T11:25:53.206Z,4.55
2023-05-05T11:28:27.009Z,3.65
2023-05-05T11:31:02.621Z,2.85
2023-05-05T11:33:33.891Z,2.80
2023-05-05T11:36:06.829Z,3.05
2023-05-05T11:39:04.380Z,2.60
2023-05-05T11:41:33.974Z,2.63
2023-05-05T11:44:14.756Z,2.30
2023-05-05T11:47:06.892Z,2.92
2023-05-05T11:49:38.548Z,2.10
2023-05-05T11:52:14.044Z,1.80
2023-05-05T11:54:50.638Z,1.77
2023-05-05T11:57:23.420Z,2.00
2023-05-05T12:00:02.842Z,2.28
2023-05-05T12:02:33.073Z,2.17
2023-05-05T12:05:03.385Z,1.83
2023-05-05T12:07:35.067Z,2.22
2023-05-05T12:10:04.738Z,2.58
2023-05-05T12:12:42.043Z,2.83
2023-05-05T12:15:12.165Z,2.55
2023-05-05T12:17:47.541Z,2.83
2023-05-05T12:20:17.179Z,2.65
2023-05-05T12:22:46.859Z,3.00
2023-05-05T12:25:16.550Z,3.55
2023-05-05T12:27:57.409Z,4.38
2023-05-05T12:30:27.084Z,6.53
2023-05-05T12:33:16.674Z,4.55
2023-05-05T12:35:46.300Z,8.30
2023-05-05T12:38:18.254Z,8.57
2023-05-05T12:40:55.360Z,9.32
2023-05-05T12:43:34.572Z,9.38
2023-05-05T12:46:14.597Z,8.00
2023-05-05T12:48:48.298Z,7.68
2023-05-05T12:51:25.129Z,13.48
2023-05-05T12:54:12.874Z,8.25
2023-05-05T12:56:45.848Z,8.38
2023-05-05T12:59:32.291Z,9.85
2023-05-05T13:02:05.017Z,8.73
2023-05-05T13:04:34.687Z,9.75
2023-05-05T13:07:12.754Z,9.80
2023-05-05T13:09:42.646Z,9.57
2023-05-05T13:12:15.399Z,9.43
2023-05-05T13:14:45.443Z,9.77
2023-05-05T13:17:15.903Z,12.15
2023-05-05T13:19:47.718Z,11.15
2023-05-05T13:22:17.503Z,12.25
2023-05-05T13:24:52.361Z,12.75
2023-05-05T13:27:22.819Z,11.10
2023-05-05T13:29:52.451Z,11.70
2023-05-05T13:32:22.179Z,10.05
2023-05-05T13:34:51.796Z,10.73
2023-05-05T13:37:21.440Z,10.75
2023-05-05T13:39:51.084Z,9.95
2023-05-05T13:42:20.658Z,10.20
2023-05-05T13:44:50.219Z,11.15
2023-05-05T13:47:19.860Z,10.43
2023-05-05T13:49:50.274Z,9.55
2023-05-05T13:52:19.924Z,11.63
2023-05-05T13:54:49.687Z,11.63
2023-05-05T13:57:19.251Z,9.77
2023-05-05T13:59:48.870Z,13.48
2023-05-05T14:02:18.483Z,10.30
2023-05-05T14:04:48.720Z,12.23
2023-05-05T14:07:18.412Z,11.93
2023-05-05T14:09:48.076Z,14.05
2023-05-05T14:12:17.889Z,13.23
2023-05-05T14:14:48.084Z,13.48
2023-05-05T14:17:17.694Z,12.07
2023-05-05T14:19:47.283Z,11.45
2023-05-05T14:22:16.910Z,9.85
2023-05-05T14:24:46.592Z,8.75
2023-05-05T14:27:16.276Z,8.73
2023-05-05T14:29:45.857Z,7.43
2023-05-05T14:32:15.526Z,6.72
2023-05-05T14:34:45.212Z,5.75
2023-05-05T14:37:14.846Z,4.78
2023-05-05T14:39:44.468Z,4.28
2023-05-05T14:42:14.133Z,4.20
2023-05-05T14:44:43.705Z,2.92
2023-05-05T14:47:13.283Z,2.70
2023-05-05T14:49:43.130Z,2.03
2023-05-05T14:52:12.766Z,2.05
2023-05-05T14:54:42.627Z,1.60
2023-05-05T14:57:12.305Z,1.38
2023-05-05T14:59:42.078Z,1.52
2023-05-05T15:02:12.182Z,0.90
2023-05-05T15:04:42.135Z,0.98
2023-05-05T15:07:12.770Z,1.00
2023-05-05T15:09:42.335Z,0.85
2023-05-05T15:12:11.886Z,1.02
2023-05-05T15:14:41.470Z,1.00
2023-05-05T15:17:11.018Z,1.27
2023-05-05T15:19:40.610Z,1.08
2023-05-05T15:22:10.202Z,0.70
2023-05-05T15:24:39.889Z,0.77
2023-05-05T15:27:09.998Z,0.52
2023-05-05T15:29:39.614Z,0.52
2023-05-05T15:32:09.213Z,0.60
2023-05-05T15:34:38.969Z,0.80
2023-05-05T15:37:08.574Z,0.85
2023-05-05T15:39:38.154Z,0.55
2023-05-05T15:42:07.841Z,0.70
2023-05-05T15:44:37.518Z,0.50
2023-05-05T15:47:08.608Z,0.60
2023-05-05T15:49:38.280Z,1.08
2023-05-05T15:52:08.053Z,0.70
2023-05-05T15:54:37.682Z,0.63
2023-05-05T15:57:07.343Z,1.17
2023-05-05T15:59:37.250Z,0.65
2023-05-05T16:02:06.924Z,0.68
2023-05-05T16:04:37.187Z,0.60
2023-05-05T16:07:06.948Z,0.60
2023-05-05T16:09:36.595Z,0.57
2023-05-05T16:12:06.671Z,0.60
2023-05-05T16:14:36.434Z,0.60
2023-05-05T16:17:06.062Z,1.10
2023-05-05T16:19:35.726Z,0.68
2023-05-05T16:22:05.308Z,0.45
2023-05-05T16:24:34.926Z,0.70
2023-05-05T16:27:04.557Z,0.73
2023-05-05T16:29:34.252Z,0.65
2023-05-05T16:32:03.982Z,0.60
2023-05-05T16:34:33.597Z,0.80
2023-05-05T16:37:03.171Z,1.00
2023-05-05T16:39:34.486Z,0.80
2023-05-05T16:42:05.005Z,0.70
2023-05-05T16:44:34.723Z,0.60
2023-05-05T16:47:04.372Z,0.80
2023-05-05T16:49:33.933Z,0.88
2023-05-05T16:52:03.552Z,0.80
2023-05-05T16:54:33.150Z,0.85
2023-05-05T16:57:03.926Z,0.52
2023-05-05T16:59:33.480Z,0.70
2023-05-05T17:02:03.090Z,0.65
2023-05-05T17:04:32.708Z,0.60
2023-05-05T17:07:02.291Z,1.40
2023-05-05T17:09:31.866Z,0.60
2023-05-05T17:12:01.503Z,0.70
2023-05-05T17:14:31.048Z,0.75
2023-05-05T17:17:00.690Z,0.90
2023-05-05T17:19:30.388Z,0.80
2023-05-05T17:22:00.024Z,0.85
2023-05-05T17:24:29.625Z,1.00
2023-05-05T17:26:59.885Z,0.75
2023-05-05T17:29:29.399Z,0.77
2023-05-05T17:31:59.045Z,1.00
2023-05-05T17:34:28.726Z,0.73
2023-05-05T17:36:58.570Z,1.10
2023-05-05T17:39:28.302Z,0.75
2023-05-05T17:41:58.110Z,0.77
2023-05-05T17:44:27.750Z,1.38
2023-05-05T17:46:57.329Z,0.60
2023-05-05T17:49:27.007Z,0.80
2023-05-05T17:51:56.613Z,1.00
2023-05-05T17:54:26.172Z,1.00
2023-05-05T17:56:55.740Z,0.60
2023-05-05T17:59:25.315Z,0.93
2023-05-05T18:01:54.890Z,0.60
2023-05-05T18:04:24.509Z,0.70
2023-05-05T18:06:54.172Z,0.60
2023-05-05T18:09:24.854Z,0.90
2023-05-05T18:11:55.565Z,0.60
2023-05-05T18:14:26.046Z,0.75
2023-05-05T18:16:56.003Z,0.77
2023-05-05T18:19:26.033Z,0.45
2023-05-05T18:21:56.308Z,0.70
2023-05-05T18:24:26.250Z,0.73
2023-05-05T18:26:55.988Z,0.60
2023-05-05T18:29:25.540Z,0.70
2023-05-05T18:31:56.098Z,1.13
2023-05-05T18:34:25.804Z,0.70
2023-05-05T18:36:56.024Z,0.95
2023-05-05T18:39:26.799Z,0.80
2023-05-05T18:41:56.408Z,0.70
2023-05-05T18:44:29.231Z,0.50
2023-05-05T18:46:58.939Z,0.70
2023-05-05T18:49:31.145Z,0.80
2023-05-05T18:52:01.227Z,0.70
2023-05-05T18:54:30.840Z,0.73
2023-05-05T18:57:00.823Z,0.75
2023-05-05T18:59:30.440Z,0.52
2023-05-05T19:02:01.053Z,0.65
2023-05-05T19:04:31.714Z,0.60
2023-05-05T19:07:01.946Z,0.50
2023-05-05T19:09:32.765Z,0.50
2023-05-05T19:12:04.366Z,0.50
2023-05-05T19:14:34.127Z,0.50
2023-05-05T19:17:03.845Z,0.65
2023-05-05T19:19:33.547Z,0.60
2023-05-05T19:22:03.726Z,0.80
2023-05-05T19:24:33.457Z,0.50
2023-05-05T19:27:04.392Z,0.60
2023-05-05T19:29:34.028Z,0.52
2023-05-05T19:32:03.706Z,0.60
2023-05-05T19:34:33.403Z,0.65
2023-05-05T19:37:02.996Z,1.05
2023-05-05T19:39:32.809Z,0.60
2023-05-05T19:42:02.544Z,0.50
2023-05-05T19:44:32.151Z,0.70
2023-05-05T19:47:01.843Z,0.70
2023-05-05T19:49:31.436Z,0.70
2023-05-05T19:52:00.996Z,0.50
2023-05-05T19:54:30.972Z,0.85
2023-05-05T19:57:00.584Z,0.32
2023-05-05T19:59:30.221Z,0.45
2023-05-05T20:01:59.812Z,0.60
2023-05-05T20:04:29.460Z,0.40
2023-05-05T20:06:59.005Z,0.50
2023-05-05T20:09:29.097Z,0.40
2023-05-05T20:12:01.294Z,1.10
2023-05-05T20:14:30.842Z,0.40
2023-05-05T20:17:00.446Z,0.50
2023-05-05T20:19:30.042Z,0.40
2023-05-05T20:21:59.666Z,0.50
2023-05-05T20:24:30.500Z,0.50
2023-05-05T20:27:00.095Z,0.43
2023-05-05T20:29:29.644Z,0.50
2023-05-05T20:31:59.327Z,0.50
2023-05-05T20:34:29.264Z,0.32
2023-05-05T20:36:59.619Z,0.43
2023-05-05T20:39:29.322Z,0.52
2023-05-05T20:41:58.946Z,0.35
2023-05-05T20:44:28.541Z,0.60
2023-05-05T20:46:58.149Z,0.55
2023-05-05T20:49:27.834Z,0.45
2023-05-05T20:51:57.456Z,0.52
2023-05-05T20:54:27.230Z,0.40
2023-05-05T20:56:59.707Z,0.40
2023-05-05T20:59:29.812Z,0.75
2023-05-05T21:01:59.917Z,0.40
2023-05-05T21:04:29.640Z,0.40
2023-05-05T21:06:59.765Z,0.50
2023-05-05T21:09:29.429Z,0.40
2023-05-05T21:11:59.015Z,0.40
2023-05-05T21:14:28.717Z,0.70
2023-05-05T21:16:58.446Z,0.80
2023-05-05T21:19:28.140Z,0.32
2023-05-05T21:22:00.493Z,0.50
2023-05-05T21:24:30.205Z,1.05
2023-05-05T21:26:59.754Z,0.60
2023-05-05T21:29:29.528Z,0.73
2023-05-05T21:31:59.212Z,0.25
2023-05-05T21:34:28.785Z,0.43
2023-05-05T21:36:58.722Z,0.40
2023-05-05T21:39:28.386Z,0.50
2023-05-05T21:41:58.053Z,0.40
2023-05-05T21:44:27.957Z,0.52
2023-05-05T21:46:57.896Z,0.50
2023-05-05T21:49:27.478Z,0.43
2023-05-05T21:51:57.048Z,0.47
2023-05-05T21:54:26.648Z,0.32
2023-05-05T21:56:56.268Z,0.60
2023-05-05T21:59:25.956Z,0.40
2023-05-05T22:01:55.599Z,0.38
2023-05-05T22:04:25.145Z,0.50
2023-05-05T22:06:54.818Z,0.40
2023-05-05T22:09:24.553Z,0.50
2023-05-05T22:11:54.288Z,0.57
2023-05-05T22:14:23.868Z,0.30
2023-05-05T22:16:53.412Z,0.40
2023-05-05T22:19:23.305Z,0.38
2023-05-05T22:21:52.919Z,0.40
2023-05-05T22:24:22.449Z,0.40
2023-05-05T22:26:52.148Z,0.30
2023-05-05T22:29:21.857Z,0.50
2023-05-05T22:31:51.564Z,0.40
2023-05-05T22:34:23.211Z,0.50
2023-05-05T22:36:52.798Z,0.50
2023-05-05T22:39:22.443Z,0.32
2023-05-05T22:41:52.037Z,0.38
2023-05-05T22:44:22.617Z,0.30
2023-05-05T22:46:52.503Z,0.35
2023-05-05T22:49:22.379Z,0.70
2023-05-05T22:51:52.833Z,0.30
2023-05-05T22:54:22.455Z,0.50
2023-05-05T22:56:52.183Z,0.60
2023-05-05T22:59:21.932Z,0.47
2023-05-05T23:01:51.499Z,0.40
2023-05-05T23:04:21.075Z,0.55
2023-05-05T23:06:50.697Z,0.50
2023-05-05T23:09:20.377Z,0.70
2023-05-05T23:11:49.957Z,0.40
2023-05-05T23:14:20.996Z,0.52
2023-05-05T23:16:50.764Z,0.50
2023-05-05T23:19:20.382Z,0.73
2023-05-05T23:21:53.684Z,0.50
2023-05-05T23:24:24.399Z,0.70
2023-05-05T23:26:54.157Z,0.57
2023-05-05T23:29:23.762Z,0.65
2023-05-05T23:31:53.400Z,0.75
2023-05-05T23:34:23.260Z,0.60
2023-05-05T23:36:52.991Z,0.60
2023-05-05T23:39:23.442Z,0.80
2023-05-05T23:41:53.040Z,0.77
2023-05-05T23:44:22.619Z,0.70
2023-05-05T23:46:52.226Z,0.60
2023-05-05T23:49:21.780Z,0.73
2023-05-05T23:51:51.385Z,0.93
2023-05-05T23:54:21.085Z,0.77
2023-05-05T23:56:50.696Z,0.65
2023-05-05T23:59:20.372Z,0.75
